createdAt,value
2017-10-10T00:00:33.014Z,43.27
2017-10-10T00:03:02.182Z,44.63
2017-10-10T00:05:31.729Z,42.03
2017-10-10T00:08:01.101Z,39.77
2017-10-10T00:10:30.494Z,38.17
2017-10-10T00:13:01.913Z,34.23
2017-10-10T00:15:31.296Z,36.30
2017-10-10T00:18:00.685Z,33.50
2017-10-10T00:20:31.173Z,34.97
2017-10-10T00:23:00.203Z,33.37
2017-10-10T00:25:29.595Z,33.37
2017-10-10T00:28:01.698Z,31.60
2017-10-10T00:30:31.072Z,33.20
2017-10-10T00:33:00.488Z,31.77
2017-10-10T00:35:30.225Z,31.83
2017-10-10T00:37:59.615Z,31.53
2017-10-10T00:40:28.985Z,29.63
2017-10-10T00:42:58.773Z,31.83
2017-10-10T00:45:28.166Z,30.33
2017-10-10T00:47:57.553Z,31.47
2017-10-10T00:50:28.378Z,27.17
2017-10-10T00:52:57.409Z,27.87
2017-10-10T00:55:26.878Z,26.67
2017-10-10T00:57:55.886Z,29.00
2017-10-10T01:00:24.416Z,27.33
2017-10-10T01:02:53.599Z,27.10
2017-10-10T01:05:23.313Z,26.07
2017-10-10T01:07:52.699Z,24.33
2017-10-10T01:10:22.078Z,26.20
2017-10-10T01:12:52.335Z,23.33
2017-10-10T01:15:22.529Z,22.80
2017-10-10T01:17:51.367Z,22.33
2017-10-10T01:20:21.435Z,22.47
2017-10-10T01:22:50.085Z,22.80
2017-10-10T01:25:19.539Z,21.60
2017-10-10T01:27:49.145Z,21.77
2017-10-10T01:30:18.176Z,20.30
2017-10-10T01:32:47.373Z,20.97
2017-10-10T01:35:16.806Z,20.60
2017-10-10T01:37:46.958Z,21.37
2017-10-10T01:40:15.438Z,20.87
2017-10-10T01:42:44.945Z,21.20
2017-10-10T01:45:13.797Z,20.03
2017-10-10T01:47:43.957Z,18.67
2017-10-10T01:50:13.601Z,21.03
2017-10-10T01:52:42.647Z,20.57
2017-10-10T01:55:11.679Z,20.53
2017-10-10T01:57:41.332Z,19.60
2017-10-10T02:00:10.366Z,18.80
2017-10-10T02:02:39.197Z,19.63
2017-10-10T02:05:09.477Z,18.90
2017-10-10T02:07:38.858Z,17.80
2017-10-10T02:10:08.672Z,19.67
2017-10-10T02:12:39.474Z,19.20
2017-10-10T02:15:08.854Z,19.10
2017-10-10T02:17:38.908Z,19.10
2017-10-10T02:20:08.934Z,19.00
2017-10-10T02:22:38.125Z,18.77
2017-10-10T02:25:08.281Z,18.70
2017-10-10T02:27:37.962Z,19.83
2017-10-10T02:30:08.121Z,20.27
2017-10-10T02:32:37.309Z,19.23
2017-10-10T02:35:07.902Z,19.07
2017-10-10T02:37:38.115Z,19.77
2017-10-10T02:40:07.335Z,20.13
2017-10-10T02:42:37.165Z,21.23
2017-10-10T02:45:06.362Z,20.70
2017-10-10T02:47:35.756Z,20.40
2017-10-10T02:50:04.933Z,21.20
2017-10-10T02:52:34.119Z,20.50
2017-10-10T02:55:03.500Z,20.20
2017-10-10T02:57:33.193Z,19.73
2017-10-10T03:00:03.345Z,20.67
2017-10-10T03:02:32.543Z,21.17
2017-10-10T03:05:03.341Z,20.43
2017-10-10T03:07:32.725Z,21.43
2017-10-10T03:10:02.105Z,20.80
2017-10-10T03:12:31.690Z,22.20
2017-10-10T03:15:00.888Z,22.00
2017-10-10T03:17:30.281Z,22.60
2017-10-10T03:20:00.042Z,21.90
2017-10-10T03:22:29.427Z,21.93
2017-10-10T03:24:58.833Z,21.70
2017-10-10T03:27:28.910Z,22.73
2017-10-10T03:29:58.286Z,22.03
2017-10-10T03:32:27.673Z,22.77
2017-10-10T03:34:57.930Z,23.27
2017-10-10T03:37:27.123Z,22.27
2017-10-10T03:39:57.102Z,21.60
2017-10-10T03:42:26.391Z,22.50
2017-10-10T03:44:55.770Z,24.27
2017-10-10T03:47:25.945Z,22.70
2017-10-10T03:49:55.983Z,25.00
2017-10-10T03:52:25.365Z,23.20
2017-10-10T03:54:54.754Z,23.27
2017-10-10T03:57:24.744Z,24.77
2017-10-10T03:59:54.130Z,23.77
2017-10-10T04:02:23.510Z,23.77
2017-10-10T04:04:53.329Z,26.03
2017-10-10T04:07:22.700Z,26.60
2017-10-10T04:09:52.090Z,26.33
2017-10-10T04:12:21.649Z,25.73
2017-10-10T04:14:51.031Z,25.17
2017-10-10T04:17:20.404Z,27.33
2017-10-10T04:19:50.341Z,27.50
2017-10-10T04:22:19.746Z,26.30
2017-10-10T04:24:49.135Z,28.23
2017-10-10T04:27:18.825Z,29.07
2017-10-10T04:29:48.209Z,29.83
2017-10-10T04:32:18.380Z,32.30
2017-10-10T04:34:48.165Z,30.07
2017-10-10T04:37:17.865Z,31.17
2017-10-10T04:39:46.545Z,32.87
2017-10-10T04:42:16.285Z,32.80
2017-10-10T04:44:45.700Z,33.57
2017-10-10T04:47:15.071Z,34.93
2017-10-10T04:49:44.757Z,34.20
2017-10-10T04:52:14.155Z,36.17
2017-10-10T04:54:43.534Z,35.10
2017-10-10T04:57:13.266Z,36.70
2017-10-10T04:59:43.675Z,37.57
2017-10-10T05:02:13.075Z,38.33
2017-10-10T05:04:43.778Z,38.27
2017-10-10T05:07:13.161Z,39.07
2017-10-10T05:09:42.549Z,40.30
2017-10-10T05:12:13.381Z,37.63
2017-10-10T05:14:42.741Z,39.70
2017-10-10T05:17:12.125Z,39.67
2017-10-10T05:19:42.636Z,41.60
2017-10-10T05:22:12.007Z,40.63
2017-10-10T05:24:41.394Z,41.73
2017-10-10T05:27:11.074Z,41.20
2017-10-10T05:29:40.458Z,42.80
2017-10-10T05:32:09.848Z,41.20
2017-10-10T05:34:40.137Z,40.57
2017-10-10T05:37:09.513Z,43.13
2017-10-10T05:39:38.713Z,42.33
2017-10-10T05:42:09.503Z,41.67
2017-10-10T05:44:38.885Z,43.33
2017-10-10T05:47:08.276Z,43.47
2017-10-10T05:49:38.769Z,41.27
2017-10-10T05:52:08.168Z,41.23
2017-10-10T05:54:37.546Z,40.73
2017-10-10T05:57:08.057Z,44.30
2017-10-10T05:59:37.442Z,44.17
2017-10-10T06:02:06.823Z,44.70
2017-10-10T06:04:37.310Z,41.60
2017-10-10T06:07:06.692Z,43.33
2017-10-10T06:09:36.080Z,43.53
2017-10-10T06:12:05.742Z,43.57
2017-10-10T06:14:35.134Z,42.03
2017-10-10T06:17:05.295Z,44.83
2017-10-10T06:19:34.677Z,43.47
2017-10-10T06:22:05.419Z,42.93
2017-10-10T06:24:35.627Z,42.17
2017-10-10T06:27:05.348Z,40.90
2017-10-10T06:29:34.564Z,42.67
2017-10-10T06:32:03.946Z,41.27
2017-10-10T06:34:33.658Z,42.00
2017-10-10T06:37:03.042Z,39.90
2017-10-10T06:39:33.212Z,41.33
2017-10-10T06:42:02.627Z,38.63
2017-10-10T06:44:31.832Z,41.90
2017-10-10T06:47:01.223Z,41.57
2017-10-10T06:49:31.709Z,41.93
2017-10-10T06:52:01.560Z,41.17
2017-10-10T06:54:30.978Z,40.43
2017-10-10T06:57:00.779Z,40.63
2017-10-10T06:59:30.172Z,39.17
2017-10-10T07:01:59.569Z,40.90
2017-10-10T07:04:28.974Z,38.87
2017-10-10T07:06:58.376Z,39.73
2017-10-10T07:09:28.581Z,39.97
2017-10-10T07:11:58.274Z,37.17
2017-10-10T07:14:27.656Z,36.10
2017-10-10T07:16:57.821Z,35.13
2017-10-10T07:19:27.354Z,34.17
2017-10-10T07:21:56.740Z,34.00
2017-10-10T07:24:26.124Z,34.63
2017-10-10T07:26:56.623Z,36.40
2017-10-10T07:29:26.011Z,33.63
2017-10-10T07:31:55.401Z,31.83
2017-10-10T07:34:25.914Z,33.17
2017-10-10T07:36:55.423Z,32.83
2017-10-10T07:39:25.061Z,32.67
2017-10-10T07:41:54.450Z,34.27
2017-10-10T07:44:23.832Z,34.27
2017-10-10T07:46:54.147Z,32.70
2017-10-10T07:49:23.522Z,32.90
2017-10-10T07:51:52.917Z,31.27
2017-10-10T07:54:22.865Z,32.57
2017-10-10T07:56:52.263Z,31.93
2017-10-10T07:59:21.643Z,31.53
2017-10-10T08:01:52.133Z,30.63
2017-10-10T08:04:21.515Z,30.80
2017-10-10T08:06:50.912Z,30.33
2017-10-10T08:09:21.189Z,28.73
2017-10-10T08:11:50.384Z,28.93
2017-10-10T08:14:20.625Z,27.13
2017-10-10T08:16:50.377Z,27.47
2017-10-10T08:19:19.759Z,29.07
2017-10-10T08:21:49.150Z,28.47
2017-10-10T08:24:19.640Z,27.97
2017-10-10T08:26:49.033Z,28.43
2017-10-10T08:29:18.425Z,27.57
2017-10-10T08:31:48.912Z,25.57
2017-10-10T08:34:18.319Z,26.00
2017-10-10T08:36:47.695Z,23.67
2017-10-10T08:39:17.877Z,24.20
2017-10-10T08:41:47.265Z,26.03
2017-10-10T08:44:16.647Z,25.20
2017-10-10T08:46:47.133Z,22.00
2017-10-10T08:49:16.528Z,21.43
2017-10-10T08:51:45.906Z,21.37
2017-10-10T08:54:15.690Z,22.23
2017-10-10T08:56:45.069Z,22.63
2017-10-10T08:59:14.274Z,23.03
2017-10-10T09:01:45.074Z,23.63
2017-10-10T09:04:14.459Z,23.33
2017-10-10T09:06:44.522Z,23.30
2017-10-10T09:09:13.906Z,22.80
2017-10-10T09:11:43.352Z,23.57
2017-10-10T09:14:13.058Z,22.80
2017-10-10T09:16:42.462Z,23.13
2017-10-10T09:19:11.853Z,23.30
2017-10-10T09:21:41.629Z,24.40
2017-10-10T09:24:11.010Z,22.70
2017-10-10T09:26:40.401Z,23.00
2017-10-10T09:29:10.835Z,22.33
2017-10-10T09:31:40.994Z,22.50
2017-10-10T09:34:10.389Z,22.00
2017-10-10T09:36:40.465Z,21.27
2017-10-10T09:39:09.846Z,21.10
2017-10-10T09:41:39.239Z,21.97
2017-10-10T09:44:09.738Z,20.60
2017-10-10T09:46:39.162Z,20.70
2017-10-10T09:49:08.529Z,20.53
2017-10-10T09:51:37.934Z,20.17
2017-10-10T09:54:08.081Z,18.43
2017-10-10T09:56:37.497Z,19.37
2017-10-10T09:59:07.229Z,20.50
2017-10-10T10:01:36.629Z,19.73
2017-10-10T10:04:06.050Z,19.10
2017-10-10T10:06:36.002Z,18.30
2017-10-10T10:09:07.037Z,16.67
2017-10-10T10:11:36.530Z,16.43
2017-10-10T10:14:05.913Z,17.13
2017-10-10T10:16:35.293Z,17.20
2017-10-10T10:19:05.036Z,16.60
2017-10-10T10:21:34.404Z,15.93
2017-10-10T10:24:03.798Z,15.57
2017-10-10T10:26:33.774Z,15.63
2017-10-10T10:29:03.166Z,15.00
2017-10-10T10:31:32.551Z,15.17
2017-10-10T10:34:03.049Z,16.17
2017-10-10T10:36:32.433Z,16.80
2017-10-10T10:39:01.630Z,16.10
2017-10-10T10:41:31.147Z,16.63
2017-10-10T10:44:00.531Z,16.87
2017-10-10T10:46:29.913Z,15.77
2017-10-10T10:48:59.653Z,15.97
2017-10-10T10:51:29.104Z,16.50
2017-10-10T10:54:00.349Z,16.20
2017-10-10T10:56:30.532Z,15.93
2017-10-10T10:58:59.938Z,15.50
2017-10-10T11:01:29.334Z,15.33
2017-10-10T11:03:58.728Z,14.77
2017-10-10T11:06:29.233Z,15.60
2017-10-10T11:08:58.628Z,14.67
2017-10-10T11:11:28.039Z,13.87
2017-10-10T11:13:57.783Z,13.20
2017-10-10T11:16:27.179Z,14.47
2017-10-10T11:18:56.559Z,14.20
2017-10-10T11:21:27.005Z,13.70
2017-10-10T11:23:57.153Z,14.77
2017-10-10T11:26:26.546Z,14.33
2017-10-10T11:28:57.056Z,15.40
2017-10-10T11:31:26.421Z,15.50
2017-10-10T11:33:55.616Z,15.90
2017-10-10T11:36:25.881Z,15.90
2017-10-10T11:38:55.275Z,16.57
2017-10-10T11:41:24.653Z,15.40
2017-10-10T11:43:54.854Z,15.40
2017-10-10T11:46:24.238Z,17.00
2017-10-10T11:48:53.630Z,14.70
2017-10-10T11:51:24.125Z,13.77
2017-10-10T11:53:53.514Z,12.37
2017-10-10T11:56:22.906Z,14.00
2017-10-10T11:58:53.409Z,13.33
2017-10-10T12:01:22.788Z,13.57
2017-10-10T12:03:52.502Z,15.03
2017-10-10T12:06:23.279Z,14.80
2017-10-10T12:08:52.763Z,14.13
2017-10-10T12:11:22.258Z,16.33
2017-10-10T12:13:52.753Z,15.23
2017-10-10T12:16:22.130Z,16.47
2017-10-10T12:18:51.516Z,17.63
2017-10-10T12:21:20.923Z,18.60
2017-10-10T12:23:50.305Z,18.43
2017-10-10T12:26:19.693Z,17.93
2017-10-10T12:28:49.109Z,18.37
2017-10-10T12:31:18.311Z,17.30
2017-10-10T12:33:48.285Z,17.70
2017-10-10T12:36:18.115Z,18.87
2017-10-10T12:38:48.087Z,18.30
2017-10-10T12:41:18.695Z,18.67
2017-10-10T12:43:48.083Z,18.97
2017-10-10T12:46:17.472Z,18.23
2017-10-10T12:48:47.234Z,18.33
2017-10-10T12:51:16.617Z,19.87
2017-10-10T12:53:48.789Z,19.67
2017-10-10T12:56:18.182Z,19.90
2017-10-10T12:58:48.148Z,20.13
2017-10-10T13:01:17.537Z,19.17
2017-10-10T13:03:47.706Z,19.27
2017-10-10T13:06:17.258Z,20.37
2017-10-10T13:08:46.636Z,19.47
2017-10-10T13:11:16.038Z,17.87
2017-10-10T13:13:45.436Z,17.40
2017-10-10T13:16:14.953Z,16.13
2017-10-10T13:18:44.385Z,16.27
2017-10-10T13:21:14.202Z,15.67
2017-10-10T13:23:43.584Z,13.30
2017-10-10T13:26:12.954Z,14.07
2017-10-10T13:28:42.689Z,12.80
2017-10-10T13:31:11.742Z,13.90
2017-10-10T13:33:42.335Z,13.73
2017-10-10T13:36:11.021Z,14.70
2017-10-10T13:38:39.509Z,13.70
2017-10-10T13:41:08.737Z,15.83
2017-10-10T13:43:37.925Z,15.17
2017-10-10T13:46:07.122Z,15.03
2017-10-10T13:48:36.569Z,16.07
2017-10-10T13:51:05.958Z,15.77
2017-10-10T13:53:35.342Z,15.47
2017-10-10T13:56:04.573Z,15.87
2017-10-10T13:58:33.958Z,14.90
2017-10-10T14:01:03.343Z,15.43
2017-10-10T14:03:33.089Z,15.40
2017-10-10T14:06:02.505Z,16.63
2017-10-10T14:08:31.905Z,16.40
2017-10-10T14:11:01.616Z,17.63
2017-10-10T14:13:30.997Z,17.50
2017-10-10T14:16:00.614Z,15.97
2017-10-10T14:18:31.428Z,17.07
2017-10-10T14:21:00.825Z,17.43
2017-10-10T14:23:30.217Z,18.03
2017-10-10T14:25:59.965Z,18.33
2017-10-10T14:28:29.348Z,18.57
2017-10-10T14:30:58.749Z,17.47
2017-10-10T14:33:28.191Z,18.53
2017-10-10T14:35:57.576Z,18.10
2017-10-10T14:38:27.453Z,18.73
2017-10-10T14:40:57.471Z,19.50
2017-10-10T14:43:26.851Z,18.00
2017-10-10T14:45:56.245Z,19.57
2017-10-10T14:48:26.739Z,18.30
2017-10-10T14:50:56.118Z,17.77
2017-10-10T14:53:25.576Z,18.60
2017-10-10T14:55:55.290Z,18.10
2017-10-10T14:58:24.693Z,18.17
2017-10-10T15:00:54.082Z,18.63
2017-10-10T15:03:24.142Z,18.97
2017-10-10T15:05:53.532Z,19.43
2017-10-10T15:08:22.929Z,18.17
2017-10-10T15:10:54.132Z,18.43
2017-10-10T15:13:23.526Z,19.37
2017-10-10T15:15:52.927Z,20.20
2017-10-10T15:18:22.478Z,17.47
2017-10-10T15:20:51.865Z,18.87
2017-10-10T15:23:21.074Z,18.30
2017-10-10T15:25:50.783Z,19.47
2017-10-10T15:28:20.173Z,20.13
2017-10-10T15:30:49.569Z,19.90
2017-10-10T15:33:19.289Z,19.90
2017-10-10T15:35:48.673Z,20.03
2017-10-10T15:38:18.070Z,19.07
2017-10-10T15:40:47.831Z,19.60
2017-10-10T15:43:17.215Z,20.80
2017-10-10T15:45:46.425Z,19.40
2017-10-10T15:48:16.175Z,18.90
2017-10-10T15:50:45.567Z,20.90
2017-10-10T15:53:14.974Z,21.00
2017-10-10T15:55:44.729Z,20.33
2017-10-10T15:58:14.148Z,19.00
2017-10-10T16:00:43.528Z,18.93
2017-10-10T16:03:13.075Z,18.47
2017-10-10T16:05:42.466Z,18.20
2017-10-10T16:08:11.662Z,18.43
2017-10-10T16:10:41.020Z,19.57
2017-10-10T16:13:10.404Z,24.87
2017-10-10T16:15:39.795Z,17.90
2017-10-10T16:18:10.594Z,18.47
2017-10-10T16:20:39.996Z,17.83
2017-10-10T16:23:10.737Z,17.20
2017-10-10T16:25:40.124Z,17.37
2017-10-10T16:28:10.281Z,16.87
2017-10-10T16:30:40.037Z,16.43
2017-10-10T16:33:09.424Z,17.77
2017-10-10T16:35:38.822Z,17.00
2017-10-10T16:38:08.775Z,15.60
2017-10-10T16:40:42.978Z,15.70
2017-10-10T16:43:13.311Z,16.37
2017-10-10T16:45:42.709Z,15.60
2017-10-10T16:48:12.914Z,16.17
2017-10-10T16:50:42.617Z,16.13
2017-10-10T16:53:12.526Z,15.73
2017-10-10T16:55:42.312Z,15.10
2017-10-10T16:58:12.449Z,16.07
2017-10-10T17:00:42.947Z,16.40
2017-10-10T17:03:12.327Z,15.83
2017-10-10T17:05:41.718Z,16.27
2017-10-10T17:08:12.420Z,16.00
2017-10-10T17:10:41.808Z,16.03
2017-10-10T17:13:11.190Z,15.87
2017-10-10T17:15:41.777Z,16.20
2017-10-10T17:18:11.177Z,14.80
2017-10-10T17:20:40.564Z,15.80
2017-10-10T17:23:12.504Z,16.13
2017-10-10T17:25:41.890Z,17.43
2017-10-10T17:28:11.280Z,17.83
2017-10-10T17:30:41.037Z,19.10
2017-10-10T17:33:10.445Z,18.77
2017-10-10T17:35:39.817Z,19.33
2017-10-10T17:38:10.258Z,19.67
2017-10-10T17:40:40.413Z,19.80
2017-10-10T17:43:09.813Z,18.77
2017-10-10T17:45:40.601Z,19.10
2017-10-10T17:48:10.005Z,19.87
2017-10-10T17:50:39.393Z,18.20
2017-10-10T17:53:09.351Z,20.10
2017-10-10T17:55:38.560Z,19.73
2017-10-10T17:58:07.760Z,19.17
2017-10-10T18:00:36.988Z,20.77
2017-10-10T18:03:06.408Z,18.60
2017-10-10T18:05:35.609Z,17.90
2017-10-10T18:08:04.674Z,16.50
2017-10-10T18:10:34.833Z,16.67
2017-10-10T18:13:04.934Z,15.93
2017-10-10T18:15:35.085Z,15.43
2017-10-10T18:18:04.491Z,14.27
2017-10-10T18:20:33.978Z,10.83
2017-10-10T18:23:03.374Z,12.37
2017-10-10T18:25:32.773Z,11.70
2017-10-10T18:28:02.609Z,12.13
2017-10-10T18:30:31.989Z,14.40
2017-10-10T18:33:01.399Z,14.83
2017-10-10T18:35:31.206Z,14.10
2017-10-10T18:38:00.429Z,14.77
2017-10-10T18:40:29.826Z,14.87
2017-10-10T18:43:00.062Z,14.57
2017-10-10T18:45:30.219Z,13.87
2017-10-10T18:47:59.887Z,11.70
2017-10-10T18:50:29.397Z,10.17
2017-10-10T18:52:59.575Z,8.50
2017-10-10T18:55:29.784Z,8.63
2017-10-10T18:58:00.758Z,8.50
2017-10-10T19:00:30.641Z,8.17
2017-10-10T19:02:59.878Z,7.47
2017-10-10T19:05:29.293Z,8.13
2017-10-10T19:07:58.802Z,7.13
2017-10-10T19:10:28.173Z,7.13
2017-10-10T19:12:58.037Z,7.50
2017-10-10T19:15:27.446Z,6.53
2017-10-10T19:17:56.826Z,7.27
2017-10-10T19:20:26.231Z,6.50
2017-10-10T19:22:56.688Z,7.07
2017-10-10T19:25:25.739Z,6.13
2017-10-10T19:27:55.112Z,6.63
2017-10-10T19:30:26.186Z,6.80
2017-10-10T19:32:55.578Z,7.10
2017-10-10T19:35:25.518Z,6.67
2017-10-10T19:37:54.923Z,6.93
2017-10-10T19:40:24.308Z,6.97
2017-10-10T19:42:53.757Z,7.03
2017-10-10T19:45:23.131Z,6.70
2017-10-10T19:47:53.103Z,7.10
2017-10-10T19:50:22.821Z,7.40
2017-10-10T19:52:51.836Z,7.17
2017-10-10T19:55:21.565Z,7.90
2017-10-10T19:57:50.962Z,7.47
2017-10-10T20:00:20.380Z,7.37
2017-10-10T20:02:49.578Z,7.70
2017-10-10T20:05:18.970Z,7.80
2017-10-10T20:07:49.111Z,6.90
2017-10-10T20:10:18.489Z,8.53
2017-10-10T20:12:48.188Z,8.00
2017-10-10T20:15:17.607Z,8.67
2017-10-10T20:17:46.969Z,8.27
2017-10-10T20:20:16.748Z,8.67
2017-10-10T20:22:46.160Z,7.80
2017-10-10T20:25:15.568Z,8.23
2017-10-10T20:27:45.373Z,8.27
2017-10-10T20:30:14.762Z,9.17
2017-10-10T20:32:45.168Z,8.53
2017-10-10T20:35:14.552Z,8.90
2017-10-10T20:37:43.966Z,9.10
2017-10-10T20:40:14.058Z,8.97
2017-10-10T20:42:43.257Z,8.17
2017-10-10T20:45:13.226Z,9.63
2017-10-10T20:47:43.020Z,8.30
2017-10-10T20:50:12.981Z,9.83
2017-10-10T20:52:42.371Z,9.43
2017-10-10T20:55:12.133Z,9.23
2017-10-10T20:57:41.519Z,8.77
2017-10-10T21:00:10.910Z,9.13
2017-10-10T21:02:41.459Z,9.33
2017-10-10T21:05:10.442Z,9.77
2017-10-10T21:07:40.598Z,9.37
2017-10-10T21:10:10.490Z,9.00
2017-10-10T21:12:39.865Z,9.40
2017-10-10T21:15:09.270Z,10.43
2017-10-10T21:17:39.012Z,9.67
2017-10-10T21:20:08.385Z,9.97
2017-10-10T21:22:37.784Z,8.73
2017-10-10T21:25:07.668Z,8.50
2017-10-10T21:27:36.881Z,8.40
2017-10-10T21:30:06.397Z,8.07
2017-10-10T21:32:37.137Z,8.00
2017-10-10T21:35:06.542Z,8.20
2017-10-10T21:37:35.742Z,7.37
2017-10-10T21:40:05.282Z,7.33
2017-10-10T21:42:34.682Z,7.03
2017-10-10T21:45:04.058Z,7.50
2017-10-10T21:47:34.825Z,7.00
2017-10-10T21:50:04.202Z,6.63
2017-10-10T21:52:33.573Z,6.50
2017-10-10T21:55:03.083Z,6.70
2017-10-10T21:57:32.458Z,6.30
2017-10-10T22:00:01.844Z,6.80
2017-10-10T22:02:31.388Z,5.87
2017-10-10T22:05:00.765Z,6.47
2017-10-10T22:07:30.141Z,6.40
2017-10-10T22:09:59.536Z,6.13
2017-10-10T22:12:30.617Z,7.30
2017-10-10T22:15:00.384Z,6.40
2017-10-10T22:17:29.776Z,6.60
2017-10-10T22:19:58.965Z,6.90
2017-10-10T22:22:28.713Z,7.40
2017-10-10T22:24:58.089Z,7.10
2017-10-10T22:27:28.249Z,7.03
2017-10-10T22:29:57.932Z,6.67
2017-10-10T22:32:28.073Z,7.40
2017-10-10T22:34:58.241Z,7.23
2017-10-10T22:37:28.058Z,7.40
2017-10-10T22:39:57.450Z,8.07
2017-10-10T22:42:26.833Z,7.77
2017-10-10T22:44:56.522Z,7.07
2017-10-10T22:47:25.910Z,6.90
2017-10-10T22:49:55.292Z,6.57
2017-10-10T22:52:24.687Z,6.73
2017-10-10T22:54:54.062Z,6.60
2017-10-10T22:57:23.441Z,6.37
2017-10-10T22:59:53.416Z,6.47
2017-10-10T23:02:22.793Z,6.67
2017-10-10T23:04:52.994Z,6.40
2017-10-10T23:07:22.996Z,6.30
2017-10-10T23:09:52.378Z,6.50
2017-10-10T23:12:21.764Z,6.10
2017-10-10T23:14:51.447Z,6.07
2017-10-10T23:17:20.823Z,6.40
2017-10-10T23:19:50.773Z,6.40
2017-10-10T23:22:19.785Z,6.77
2017-10-10T23:24:48.963Z,6.73
2017-10-10T23:27:19.118Z,6.30
2017-10-10T23:29:48.658Z,6.90
2017-10-10T23:32:18.033Z,6.07
2017-10-10T23:34:48.174Z,6.17
2017-10-10T23:37:18.001Z,6.13
2017-10-10T23:39:47.373Z,6.70
2017-10-10T23:42:16.755Z,6.03
2017-10-10T23:44:46.482Z,5.67
2017-10-10T23:47:15.862Z,5.67
2017-10-10T23:49:45.241Z,5.03
2017-10-10T23:52:14.926Z,5.13
2017-10-10T23:54:44.297Z,5.37
2017-10-10T23:57:14.450Z,5.53
2017-10-10T23:59:44.213Z,5.03
